Terminal Aerodrome Forecast
Issued by NWS

Current Version | Previous Version | Text Only | Print | Product List | Glossary Off
Versions: 1 2 3 4 5 6 7 8 9 10 11 12 13 14 15 16 17 18 19

194
FTUS41 KPBZ 230522
TAFMGW
TAF
KMGW 230522Z 2306/2406 20008KT 5SM -SHRA OVC025
     FM230730 20006KT 5SM SHRA OVC015
     FM231000 21008KT 3SM -SHRA BR OVC010
     FM231700 23015G26KT 5SM SHRA VCTS OVC035CB
     FM240000 23013G23KT 3SM SHRA VCTS OVC015CB=

USA.gov is the U.S. government's official web portal to all federal, state and local government web resources and services.